createdAt,value
2017-10-22T00:00:25.555Z,97.23
2017-10-22T00:01:36.037Z,97.61
2017-10-22T00:02:46.536Z,97.71
2017-10-22T00:03:57.019Z,97.42
2017-10-22T00:05:07.188Z,97.23
2017-10-22T00:06:17.660Z,97.42
2017-10-22T00:07:28.134Z,97.71
2017-10-22T00:08:38.637Z,96.84
2017-10-22T00:09:49.135Z,96.84
2017-10-22T00:10:59.724Z,96.84
2017-10-22T00:12:09.774Z,96.94
2017-10-22T00:13:20.310Z,96.27
2017-10-22T00:14:30.770Z,96.27
2017-10-22T00:15:41.313Z,96.66
2017-10-22T00:16:51.802Z,96.47
2017-10-22T00:18:03.108Z,96.18
2017-10-22T00:19:13.620Z,96.75
2017-10-22T00:20:24.189Z,95.98
2017-10-22T00:21:34.630Z,96.18
2017-10-22T00:22:45.135Z,96.18
2017-10-22T00:23:55.751Z,96.08
2017-10-22T00:25:06.224Z,96.27
2017-10-22T00:26:16.380Z,96.18
2017-10-22T00:27:26.960Z,96.27
2017-10-22T00:28:37.440Z,95.98
2017-10-22T00:29:47.924Z,95.98
2017-10-22T00:30:58.411Z,95.79
2017-10-22T00:32:08.564Z,96.18
2017-10-22T00:33:19.076Z,96.08
2017-10-22T00:34:29.561Z,95.98
2017-10-22T00:35:40.019Z,96.18
2017-10-22T00:36:50.475Z,96.08
2017-10-22T00:38:00.946Z,96.37
2017-10-22T00:39:11.477Z,96.18
2017-10-22T00:40:22.008Z,95.98
2017-10-22T00:41:32.456Z,95.7
2017-10-22T00:42:42.943Z,95.89
2017-10-22T00:43:53.536Z,95.61
2017-10-22T00:45:03.984Z,95.61
2017-10-22T00:46:14.433Z,95.41
2017-10-22T00:47:24.892Z,95.51
2017-10-22T00:48:35.633Z,95.51
2017-10-22T00:49:46.117Z,95.03
2017-10-22T00:50:56.618Z,95.12
2017-10-22T00:52:07.061Z,94.74
2017-10-22T00:53:17.606Z,94.65
2017-10-22T00:54:28.070Z,94.55
2017-10-22T00:55:38.796Z,93.88
2017-10-22T00:56:49.350Z,93.69
2017-10-22T00:57:59.830Z,93.88
2017-10-22T00:59:10.363Z,93.6
2017-10-22T01:00:20.904Z,93.69
2017-10-22T01:01:31.398Z,93.79
2017-10-22T01:02:41.907Z,93.5
2017-10-22T01:03:52.396Z,93.6
2017-10-22T01:05:02.879Z,93.4
2017-10-22T01:06:13.339Z,92.83
2017-10-22T01:07:23.589Z,93.55
2017-10-22T01:08:34.030Z,93.79
2017-10-22T01:09:44.541Z,92.69
2017-10-22T01:10:55.004Z,92.97
2017-10-22T01:12:05.693Z,92.88
2017-10-22T01:13:16.168Z,92.88
2017-10-22T01:14:26.671Z,92.5
2017-10-22T01:15:37.267Z,92.69
2017-10-22T01:16:47.728Z,92.59
2017-10-22T01:17:58.221Z,92.69
2017-10-22T01:19:08.678Z,92.4
2017-10-22T01:20:19.166Z,92.02
2017-10-22T01:21:29.679Z,92.4
2017-10-22T01:22:39.830Z,92.4
2017-10-22T01:23:50.307Z,92.3
2017-10-22T01:25:00.425Z,91.83
2017-10-22T01:26:10.926Z,91.64
2017-10-22T01:27:21.416Z,92.02
2017-10-22T01:28:32.106Z,91.64
2017-10-22T01:29:42.579Z,91.83
2017-10-22T01:30:53.073Z,91.83
2017-10-22T01:32:03.536Z,91.83
2017-10-22T01:33:13.668Z,92.11
2017-10-22T01:34:24.198Z,92.21
2017-10-22T01:35:34.697Z,91.54
2017-10-22T01:36:45.214Z,91.16
2017-10-22T01:37:55.364Z,91.25
2017-10-22T01:39:06.056Z,91.54
2017-10-22T01:40:16.493Z,91.54
2017-10-22T01:41:27.017Z,91.54
2017-10-22T01:42:37.576Z,91.45
2017-10-22T01:43:48.064Z,91.45
2017-10-22T01:44:58.620Z,90.92
2017-10-22T01:46:09.015Z,90.97
2017-10-22T01:47:19.592Z,90.73
2017-10-22T01:48:29.761Z,90.92
2017-10-22T01:49:40.194Z,90.92
2017-10-22T01:50:50.764Z,91.3
2017-10-22T01:52:01.296Z,90.92
2017-10-22T01:53:11.766Z,91.21
2017-10-22T01:54:22.360Z,90.92
2017-10-22T01:55:32.578Z,90.92
2017-10-22T01:56:43.049Z,90.92
2017-10-22T01:57:53.139Z,90.92
2017-10-22T01:59:03.652Z,91.21
2017-10-22T02:00:13.806Z,91.3
2017-10-22T02:01:24.259Z,91.02
2017-10-22T02:02:34.938Z,91.3
2017-10-22T02:03:45.157Z,91.3
2017-10-22T02:04:55.645Z,91.11
2017-10-22T02:06:06.087Z,90.92
2017-10-22T02:07:16.548Z,91.02
2017-10-22T02:08:27.039Z,90.92
2017-10-22T02:09:37.573Z,90.73
2017-10-22T02:10:48.029Z,90.73
2017-10-22T02:11:58.544Z,91.11
2017-10-22T02:13:09.048Z,90.92
2017-10-22T02:14:19.496Z,91.11
2017-10-22T02:15:29.624Z,90.83
2017-10-22T02:16:40.096Z,90.73
2017-10-22T02:17:50.636Z,91.11
2017-10-22T02:19:01.165Z,91.5
2017-10-22T02:20:11.693Z,91.5
2017-10-22T02:21:22.363Z,91.5
2017-10-22T02:22:33.076Z,91.4
2017-10-22T02:23:43.336Z,91.26
2017-10-22T02:24:53.786Z,91.16
2017-10-22T02:26:03.928Z,91.45
2017-10-22T02:27:14.470Z,91.16
2017-10-22T02:28:24.922Z,91.45
2017-10-22T02:29:35.464Z,91.45
2017-10-22T02:30:46.030Z,91.55
2017-10-22T02:31:56.483Z,91.36
2017-10-22T02:33:06.635Z,91.45
2017-10-22T02:34:17.070Z,91.45
2017-10-22T02:35:27.538Z,91.36
2017-10-22T02:36:38.087Z,91.64
2017-10-22T02:37:48.575Z,91.45
2017-10-22T02:38:59.042Z,91.45
2017-10-22T02:40:09.491Z,91.07
2017-10-22T02:41:20.082Z,90.97
2017-10-22T02:42:30.520Z,90.78
2017-10-22T02:43:41.940Z,90.78
2017-10-22T02:44:52.407Z,90.97
2017-10-22T02:46:02.948Z,90.97
2017-10-22T02:47:12.656Z,91.45
2017-10-22T02:48:23.115Z,91.64
2017-10-22T02:49:33.616Z,91.45
2017-10-22T02:50:44.121Z,91.21
2017-10-22T02:51:54.253Z,91.36
2017-10-22T02:53:04.591Z,91.41
2017-10-22T02:54:15.064Z,91.41
2017-10-22T02:55:25.548Z,91.21
2017-10-22T02:56:36.004Z,91.41
2017-10-22T02:57:46.526Z,91.31
2017-10-22T02:58:57.016Z,91.41
2017-10-22T03:00:07.253Z,91.21
2017-10-22T03:01:18.026Z,91.31
2017-10-22T03:02:28.523Z,91.41
2017-10-22T03:03:39.012Z,91.31
2017-10-22T03:04:49.469Z,91.5
2017-10-22T03:06:00.118Z,91.31
2017-10-22T03:07:10.582Z,91.41
2017-10-22T03:08:21.120Z,91.41
2017-10-22T03:09:31.675Z,91.88
2017-10-22T03:10:42.141Z,92.07
2017-10-22T03:11:52.657Z,91.98
2017-10-22T03:13:03.122Z,91.88
2017-10-22T03:14:13.611Z,91.88
2017-10-22T03:15:24.060Z,91.78
2017-10-22T03:16:34.521Z,91.88
2017-10-22T03:17:45.009Z,92.07
2017-10-22T03:18:55.539Z,91.98
2017-10-22T03:20:06.002Z,91.88
2017-10-22T03:21:16.470Z,91.78
2017-10-22T03:22:26.936Z,92.07
2017-10-22T03:23:37.419Z,91.98
2017-10-22T03:24:48.096Z,92.07
2017-10-22T03:25:58.538Z,91.5
2017-10-22T03:27:08.981Z,91.5
2017-10-22T03:28:19.418Z,91.02
2017-10-22T03:29:29.938Z,91.31
2017-10-22T03:30:40.371Z,91.21
2017-10-22T03:31:50.543Z,91.5
2017-10-22T03:33:01.086Z,91.41
2017-10-22T03:34:11.526Z,91.21
2017-10-22T03:35:21.980Z,90.93
2017-10-22T03:36:32.438Z,91.02
2017-10-22T03:37:43.015Z,91.02
2017-10-22T03:38:53.532Z,91.21
2017-10-22T03:40:03.994Z,90.83
2017-10-22T03:41:14.118Z,90.07
2017-10-22T03:42:24.580Z,90.17
2017-10-22T03:43:35.049Z,90.07
2017-10-22T03:44:45.487Z,90.36
2017-10-22T03:45:55.965Z,90.07
2017-10-22T03:47:06.434Z,89.97
2017-10-22T03:48:16.889Z,89.97
2017-10-22T03:49:27.363Z,89.88
2017-10-22T03:50:37.803Z,89.88
2017-10-22T03:51:48.247Z,89.88
2017-10-22T03:52:58.407Z,89.69
2017-10-22T03:54:08.854Z,89.97
2017-10-22T03:55:19.325Z,89.78
2017-10-22T03:56:29.804Z,89.69
2017-10-22T03:57:40.379Z,89.69
2017-10-22T03:58:50.846Z,89.59
2017-10-22T04:00:01.304Z,89.4
2017-10-22T04:01:11.792Z,89.59
2017-10-22T04:02:22.283Z,89.31
2017-10-22T04:03:32.727Z,89.21
2017-10-22T04:04:43.164Z,89.31
2017-10-22T04:05:53.610Z,89.31
2017-10-22T04:07:04.096Z,89.4
2017-10-22T04:08:14.246Z,89.59
2017-10-22T04:09:24.697Z,89.4
2017-10-22T04:10:35.129Z,89.4
2017-10-22T04:11:45.639Z,89.4
2017-10-22T04:12:56.098Z,89.31
2017-10-22T04:14:06.529Z,89.31
2017-10-22T04:15:16.976Z,89.4
2017-10-22T04:16:27.516Z,89.4
2017-10-22T04:17:38.082Z,89.5
2017-10-22T04:18:48.546Z,89.5
2017-10-22T04:19:58.688Z,89.5
2017-10-22T04:21:09.355Z,88.92
2017-10-22T04:22:19.907Z,89.45
2017-10-22T04:23:30.112Z,89.02
2017-10-22T04:24:40.576Z,89.59
2017-10-22T04:25:50.737Z,88.88
2017-10-22T04:27:01.173Z,89.54
2017-10-22T04:28:11.647Z,89.36
2017-10-22T04:29:22.088Z,89.36
2017-10-22T04:30:32.654Z,89.26
2017-10-22T04:31:42.783Z,89.54
2017-10-22T04:32:53.224Z,89.64
2017-10-22T04:34:03.697Z,89.83
2017-10-22T04:35:14.301Z,89.83
2017-10-22T04:36:24.767Z,89.64
2017-10-22T04:37:34.899Z,89.64
2017-10-22T04:38:45.350Z,89.83
2017-10-22T04:39:55.942Z,89.93
2017-10-22T04:41:06.220Z,89.36
2017-10-22T04:42:16.689Z,89.83
2017-10-22T04:43:27.168Z,89.83
2017-10-22T04:44:37.650Z,89.93
2017-10-22T04:45:48.171Z,89.83
2017-10-22T04:46:58.603Z,89.64
2017-10-22T04:48:09.060Z,89.45
2017-10-22T04:49:19.539Z,89.54
2017-10-22T04:50:30.241Z,90.31
2017-10-22T04:51:40.700Z,90.12
2017-10-22T04:52:51.144Z,90.12
2017-10-22T04:54:01.580Z,90.12
2017-10-22T04:55:12.087Z,90.12
2017-10-22T04:56:22.562Z,89.93
2017-10-22T04:57:33.091Z,89.74
2017-10-22T04:58:43.571Z,90.03
2017-10-22T04:59:54.036Z,90.03
2017-10-22T05:01:04.525Z,89.93
2017-10-22T05:02:14.998Z,90.03
2017-10-22T05:03:25.460Z,89.83
2017-10-22T05:04:35.945Z,90.03
2017-10-22T05:05:46.439Z,89.93
2017-10-22T05:06:56.900Z,90.22
2017-10-22T05:08:07.329Z,90.22
2017-10-22T05:09:17.804Z,89.93
2017-10-22T05:10:28.386Z,90.03
2017-10-22T05:11:38.824Z,90.22
2017-10-22T05:12:49.281Z,89.93
2017-10-22T05:13:59.417Z,89.93
2017-10-22T05:15:09.867Z,89.83
2017-10-22T05:16:20.393Z,89.93
2017-10-22T05:17:30.863Z,89.93
2017-10-22T05:18:41.096Z,90.41
2017-10-22T05:19:51.533Z,90.41
2017-10-22T05:21:01.674Z,90.22
2017-10-22T05:22:12.491Z,90.22
2017-10-22T05:23:22.933Z,90.12
2017-10-22T05:24:33.402Z,90.12
2017-10-22T05:25:43.550Z,90.12
2017-10-22T05:26:54.022Z,90.22
2017-10-22T05:28:04.247Z,90.03
2017-10-22T05:29:14.893Z,90.12
2017-10-22T05:30:25.356Z,89.93
2017-10-22T05:31:35.950Z,90.5
2017-10-22T05:32:46.430Z,90.12
2017-10-22T05:33:56.878Z,90.41
2017-10-22T05:35:07.308Z,90.41
2017-10-22T05:36:17.871Z,90.31
2017-10-22T05:37:28.350Z,90.31
2017-10-22T05:38:38.841Z,90.98
2017-10-22T05:39:49.491Z,90.5
2017-10-22T05:40:59.971Z,90.59
2017-10-22T05:42:10.483Z,90.41
2017-10-22T05:43:20.947Z,90.79
2017-10-22T05:44:31.626Z,90.79
2017-10-22T05:45:42.107Z,90.59
2017-10-22T05:46:52.601Z,90.59
2017-10-22T05:48:03.260Z,90.5
2017-10-22T05:49:13.754Z,90.59
2017-10-22T05:50:24.326Z,90.88
2017-10-22T05:51:34.774Z,90.88
2017-10-22T05:52:45.233Z,90.59
2017-10-22T05:53:55.779Z,91.07
2017-10-22T05:55:06.223Z,90.59
2017-10-22T05:56:16.925Z,91.07
2017-10-22T05:57:27.184Z,91.17
2017-10-22T05:58:37.638Z,90.98
2017-10-22T05:59:48.161Z,90.98
2017-10-22T06:00:58.735Z,90.98
2017-10-22T06:02:09.205Z,90.79
2017-10-22T06:03:19.823Z,91.07
2017-10-22T06:04:30.324Z,90.59
2017-10-22T06:05:40.787Z,90.88
2017-10-22T06:06:51.300Z,90.31
2017-10-22T06:08:01.753Z,90.22
2017-10-22T06:09:12.285Z,90.88
2017-10-22T06:10:22.736Z,90.5
2017-10-22T06:11:33.172Z,90.69
2017-10-22T06:12:43.201Z,90.41
2017-10-22T06:13:53.729Z,90.22
2017-10-22T06:15:04.234Z,90.41
2017-10-22T06:16:14.706Z,90.12
2017-10-22T06:17:25.401Z,90.41
2017-10-22T06:18:35.844Z,90.41
2017-10-22T06:19:46.288Z,90.5
2017-10-22T06:20:56.798Z,90.41
2017-10-22T06:22:07.244Z,90.41
2017-10-22T06:23:17.751Z,90.59
2017-10-22T06:24:28.211Z,90.36
2017-10-22T06:25:38.685Z,89.88
2017-10-22T06:26:49.136Z,89.83
2017-10-22T06:27:59.666Z,89.69
2017-10-22T06:29:10.276Z,89.83
2017-10-22T06:30:20.488Z,89.74
2017-10-22T06:31:31.154Z,89.59
2017-10-22T06:32:41.661Z,89.5
2017-10-22T06:33:52.151Z,89.31
2017-10-22T06:35:02.634Z,89.31
2017-10-22T06:36:13.143Z,89.21
2017-10-22T06:37:23.596Z,88.54
2017-10-22T06:38:34.123Z,88.35
2017-10-22T06:39:44.562Z,88.54
2017-10-22T06:40:55.076Z,88.64
2017-10-22T06:42:05.540Z,88.16
2017-10-22T06:43:16.044Z,87.97
2017-10-22T06:44:26.540Z,87.02
2017-10-22T06:45:37.024Z,87.21
2017-10-22T06:46:47.487Z,87.15
2017-10-22T06:47:58.002Z,86.49
2017-10-22T06:49:08.709Z,86.49
2017-10-22T06:50:19.160Z,86.3
2017-10-22T06:51:29.628Z,86.2
2017-10-22T06:52:40.161Z,85.67
2017-10-22T06:53:50.649Z,85.58
2017-10-22T06:55:01.144Z,84.62
2017-10-22T06:56:11.290Z,83.99
2017-10-22T06:57:21.775Z,83.7
2017-10-22T06:58:32.420Z,83.23
2017-10-22T06:59:42.892Z,83.7
2017-10-22T07:00:53.381Z,83.42
2017-10-22T07:02:04.093Z,82.75
2017-10-22T07:03:14.591Z,82.71
2017-10-22T07:04:25.063Z,83.09
2017-10-22T07:05:35.560Z,83.28
2017-10-22T07:06:46.049Z,83.18
2017-10-22T07:07:56.541Z,82.81
2017-10-22T07:09:06.994Z,83.38
2017-10-22T07:10:17.488Z,83.28
2017-10-22T07:11:27.979Z,83.18
2017-10-22T07:12:38.444Z,83.34
2017-10-22T07:13:48.939Z,83.53
2017-10-22T07:14:59.453Z,83.34
2017-10-22T07:16:09.701Z,83.53
2017-10-22T07:17:20.205Z,83.34
2017-10-22T07:18:30.686Z,83.53
2017-10-22T07:19:41.291Z,83.24
2017-10-22T07:20:51.759Z,83.14
2017-10-22T07:22:02.217Z,82.57
2017-10-22T07:23:12.788Z,82.42
2017-10-22T07:24:23.459Z,81.99
2017-10-22T07:25:33.929Z,81.6
2017-10-22T07:26:44.428Z,81.7
2017-10-22T07:27:54.645Z,81.03
2017-10-22T07:29:05.121Z,80.11
2017-10-22T07:30:15.594Z,79.87
2017-10-22T07:31:26.084Z,78.61
2017-10-22T07:32:36.588Z,75.58
2017-10-22T07:33:47.073Z,76.1
2017-10-22T07:34:57.575Z,75.65
2017-10-22T07:36:08.053Z,75.37
2017-10-22T07:37:18.551Z,73.93
2017-10-22T07:38:29.031Z,72.63
2017-10-22T07:39:39.531Z,71.98
2017-10-22T07:40:50.063Z,70.97
2017-10-22T07:42:00.539Z,69.5
2017-10-22T07:43:11.055Z,68.57
2017-10-22T07:44:21.603Z,66.1
2017-10-22T07:45:32.064Z,66.1
2017-10-22T07:46:42.214Z,63.25
2017-10-22T07:47:52.746Z,64.15
2017-10-22T07:49:03.240Z,63.47
2017-10-22T07:50:13.756Z,61.58
2017-10-22T07:51:23.792Z,57.53
2017-10-22T07:52:34.307Z,58.33
2017-10-22T07:53:44.999Z,57.97
2017-10-22T07:54:55.759Z,56.72
2017-10-22T07:56:06.757Z,56.16
2017-10-22T07:57:17.241Z,55.59
2017-10-22T07:58:28.013Z,55.68
2017-10-22T07:59:38.660Z,52.98
2017-10-22T08:00:49.209Z,53.95
2017-10-22T08:01:59.727Z,54.43
2017-10-22T08:03:10.236Z,54.55
2017-10-22T08:05:51.783Z,52.55
2017-10-22T08:07:10.655Z,51.87
2017-10-22T08:08:21.167Z,51.1
2017-10-22T08:09:33.095Z,51.27
2017-10-22T08:10:43.685Z,51.56
2017-10-22T08:11:54.365Z,51.1
2017-10-22T08:13:04.524Z,49.46
2017-10-22T08:14:15.007Z,48.59
2017-10-22T08:15:25.721Z,47.91
2017-10-22T08:16:36.363Z,48.11
2017-10-22T08:17:46.920Z,49.34
2017-10-22T08:18:57.416Z,48.47
2017-10-22T08:20:08.157Z,47.22
2017-10-22T08:21:19.285Z,48.21
2017-10-22T08:22:30.015Z,48.3
2017-10-22T08:23:40.515Z,46.68
2017-10-22T08:24:51.051Z,44.77
2017-10-22T08:26:01.522Z,45.54
2017-10-22T08:27:12.012Z,46.22
2017-10-22T08:28:22.512Z,44.67
2017-10-22T08:29:32.699Z,44.48
2017-10-22T08:30:43.295Z,44.48
2017-10-22T08:31:53.784Z,44.38
2017-10-22T08:33:04.308Z,43.8
2017-10-22T08:34:14.931Z,44.57
2017-10-22T08:35:25.402Z,43.88
2017-10-22T08:36:35.539Z,45.62
2017-10-22T08:37:46.043Z,45.42
2017-10-22T08:38:56.513Z,44.46
2017-10-22T08:40:07.077Z,43.13
2017-10-22T08:41:17.578Z,42.66
2017-10-22T08:42:28.090Z,41.7
2017-10-22T08:43:38.396Z,40.53
2017-10-22T08:44:48.881Z,41.5
2017-10-22T08:45:59.393Z,41.97
2017-10-22T08:47:10.207Z,42.45
2017-10-22T08:48:20.687Z,42.62
2017-10-22T08:49:31.160Z,42.91
2017-10-22T08:50:41.670Z,42.55
2017-10-22T08:51:52.169Z,43.03
2017-10-22T08:53:02.761Z,40.63
2017-10-22T08:54:12.979Z,40.46
2017-10-22T08:55:23.683Z,40.65
2017-10-22T08:56:33.854Z,40.94
2017-10-22T08:57:44.354Z,41.24
2017-10-22T08:58:54.517Z,39.47
2017-10-22T09:00:05.023Z,40.44
2017-10-22T09:01:15.511Z,40.25
2017-10-22T09:02:26.697Z,41.21
2017-10-22T09:03:37.320Z,39.57
2017-10-22T09:04:47.551Z,39.37
2017-10-22T09:05:58.028Z,39.57
2017-10-22T09:07:08.526Z,39.67
2017-10-22T09:08:18.769Z,39.37
2017-10-22T09:09:29.490Z,39.28
2017-10-22T09:10:40.032Z,38.41
2017-10-22T09:11:50.599Z,37.54
2017-10-22T09:13:01.118Z,38.48
2017-10-22T09:14:12.609Z,39.28
2017-10-22T09:16:40.105Z,39.64
2017-10-22T09:17:50.653Z,40.61
2017-10-22T09:19:01.237Z,39.57
2017-10-22T09:20:11.747Z,38.12
2017-10-22T09:21:22.267Z,39.55
2017-10-22T09:22:32.781Z,39.64
2017-10-22T09:23:43.312Z,39.94
2017-10-22T09:24:53.815Z,38.31
2017-10-22T09:26:04.299Z,39.76
2017-10-22T09:27:14.345Z,38.62
2017-10-22T09:28:24.908Z,37.48
2017-10-22T09:29:35.165Z,37.67
2017-10-22T09:30:45.679Z,37.59
2017-10-22T09:31:56.177Z,36.04
2017-10-22T09:33:06.839Z,35.94
2017-10-22T09:34:17.379Z,36.04
2017-10-22T09:35:27.874Z,36.24
2017-10-22T09:36:38.439Z,36.62
2017-10-22T09:37:48.959Z,36.35
2017-10-22T09:38:59.638Z,36.06
2017-10-22T09:40:10.506Z,34.89
2017-10-22T09:41:21.071Z,35.77
2017-10-22T09:42:31.635Z,35.07
2017-10-22T09:43:42.134Z,35.07
2017-10-22T09:44:52.674Z,35.05
2017-10-22T09:46:03.197Z,35.15
2017-10-22T09:47:13.676Z,35.05
2017-10-22T09:48:24.266Z,35.73
2017-10-22T09:49:34.891Z,35.93
2017-10-22T09:50:45.398Z,35.64
2017-10-22T09:51:55.954Z,33.8
2017-10-22T09:53:06.429Z,35.54
2017-10-22T09:54:16.684Z,34.86
2017-10-22T09:55:27.182Z,35.44
2017-10-22T09:56:37.841Z,35.25
2017-10-22T09:57:48.320Z,34.96
2017-10-22T09:58:58.827Z,35.21
2017-10-22T10:00:09.687Z,35.8
2017-10-22T10:01:20.246Z,36.36
2017-10-22T10:02:30.750Z,37.19
2017-10-22T10:03:41.248Z,38.6
2017-10-22T10:04:52.008Z,39.53
2017-10-22T10:06:02.196Z,39.36
2017-10-22T10:07:12.740Z,39.16
2017-10-22T10:08:23.459Z,39.74
2017-10-22T10:09:33.995Z,40.59
2017-10-22T10:10:44.573Z,41.14
2017-10-22T10:11:54.791Z,41.8
2017-10-22T10:13:05.339Z,42.84
2017-10-22T10:14:15.877Z,43.85
2017-10-22T10:15:26.394Z,44.6
2017-10-22T10:16:36.887Z,45.37
2017-10-22T10:17:47.411Z,45.73
2017-10-22T10:18:57.598Z,46.38
2017-10-22T10:20:08.193Z,46.84
2017-10-22T10:21:19.386Z,47.71
2017-10-22T10:22:29.884Z,48.54
2017-10-22T10:23:40.404Z,48.93
2017-10-22T10:24:51.021Z,49.41
2017-10-22T10:26:01.561Z,49.98
2017-10-22T10:27:11.728Z,50.37
2017-10-22T10:28:22.209Z,50.73
2017-10-22T10:29:32.695Z,50.73
2017-10-22T10:30:42.852Z,51.3
2017-10-22T10:31:53.363Z,51.68
2017-10-22T10:33:03.849Z,51.2
2017-10-22T10:34:14.604Z,51.4
2017-10-22T10:35:25.094Z,52.23
2017-10-22T10:36:35.575Z,52.42
2017-10-22T10:37:46.042Z,52.42
2017-10-22T10:38:56.121Z,53.38
2017-10-22T10:40:06.601Z,53.19
2017-10-22T10:41:17.105Z,53.19
2017-10-22T10:42:27.610Z,53.38
2017-10-22T10:43:38.125Z,53.58
2017-10-22T10:44:48.626Z,54.32
2017-10-22T10:45:59.219Z,54.41
2017-10-22T10:47:09.776Z,54.5
2017-10-22T10:48:20.277Z,54.99
2017-10-22T10:49:30.762Z,54.79
2017-10-22T10:50:41.282Z,55.18
2017-10-22T10:51:51.859Z,55.27
2017-10-22T10:53:02.356Z,55.46
2017-10-22T10:54:12.880Z,55.36
2017-10-22T10:55:23.365Z,56.13
2017-10-22T10:56:33.864Z,56.13
2017-10-22T10:57:44.568Z,56.32
2017-10-22T10:58:55.153Z,56.39
2017-10-22T11:00:05.665Z,56.77
2017-10-22T11:01:15.833Z,57.35
2017-10-22T11:02:26.344Z,57.64
2017-10-22T11:03:36.831Z,58.22
2017-10-22T11:04:47.374Z,58.22
2017-10-22T11:05:57.967Z,58.31
2017-10-22T11:07:08.500Z,58.95
2017-10-22T11:08:18.994Z,58.66
2017-10-22T11:09:29.707Z,58.76
2017-10-22T11:10:40.235Z,58.79
2017-10-22T11:11:50.846Z,58.95
2017-10-22T11:13:01.354Z,59.08
2017-10-22T11:14:12.274Z,59.17
2017-10-22T11:15:22.759Z,59.43
2017-10-22T11:16:33.279Z,59.43
2017-10-22T11:17:43.812Z,59.14
2017-10-22T11:18:54.302Z,59.27
2017-10-22T11:20:04.811Z,59.36
2017-10-22T11:21:15.346Z,59.45
2017-10-22T11:22:25.845Z,59.45
2017-10-22T11:23:36.324Z,59.17
2017-10-22T11:24:46.863Z,59.17
2017-10-22T11:25:57.453Z,59.36
2017-10-22T11:27:07.963Z,59.84
2017-10-22T11:28:18.586Z,60.22
2017-10-22T11:29:28.786Z,60.51
2017-10-22T11:30:39.563Z,60.03
2017-10-22T11:31:50.223Z,60.8
2017-10-22T11:33:00.709Z,60.86
2017-10-22T11:34:11.220Z,61.54
2017-10-22T11:35:21.786Z,62.49
2017-10-22T11:36:32.277Z,62.49
2017-10-22T11:37:42.935Z,63.06
2017-10-22T11:38:53.462Z,62.55
2017-10-22T11:40:04.080Z,63.23
2017-10-22T11:41:14.579Z,63.13
2017-10-22T11:42:25.189Z,64.18
2017-10-22T11:43:35.814Z,63.32
2017-10-22T11:44:46.351Z,62.94
2017-10-22T11:45:56.874Z,62.94
2017-10-22T11:47:07.404Z,63.7
2017-10-22T11:48:17.908Z,63.7
2017-10-22T11:49:28.432Z,63.8
2017-10-22T11:50:38.981Z,63.6
2017-10-22T11:51:49.459Z,63.99
2017-10-22T11:53:00.591Z,63.51
2017-10-22T11:54:11.083Z,64.05
2017-10-22T11:55:21.583Z,64.05
2017-10-22T11:56:32.111Z,63.76
2017-10-22T11:57:42.617Z,64.15
2017-10-22T11:58:53.234Z,63.76
2017-10-22T12:00:03.783Z,64.15
2017-10-22T12:01:14.311Z,63.96
2017-10-22T12:02:24.533Z,64.05
2017-10-22T12:03:35.053Z,64.05
2017-10-22T12:04:45.556Z,64.15
2017-10-22T12:05:56.105Z,64.05
2017-10-22T12:07:06.675Z,64.05
2017-10-22T12:08:17.317Z,63.67
2017-10-22T12:09:27.815Z,63.86
2017-10-22T12:10:38.326Z,64.05
2017-10-22T12:11:49.037Z,63.76
2017-10-22T12:12:59.558Z,64.34
2017-10-22T12:14:10.108Z,64.34
2017-10-22T12:15:20.648Z,64.34
2017-10-22T12:16:31.178Z,64.62
2017-10-22T12:17:41.795Z,64.82
2017-10-22T12:18:52.291Z,64.72
2017-10-22T12:20:02.834Z,65.2
2017-10-22T12:21:13.560Z,65.39
2017-10-22T12:22:24.092Z,65.39
2017-10-22T12:23:34.799Z,65.77
2017-10-22T12:24:46.157Z,66.25
2017-10-22T12:25:56.687Z,65.77
2017-10-22T12:27:07.355Z,65.84
2017-10-22T12:28:17.956Z,66.92
2017-10-22T12:29:28.513Z,66.73
2017-10-22T12:30:39.337Z,67.49
2017-10-22T12:31:50.041Z,67.3
2017-10-22T12:33:00.532Z,67.11
2017-10-22T12:34:11.110Z,67.78
2017-10-22T12:35:22.953Z,67.75
2017-10-22T12:36:33.492Z,67.55
2017-10-22T12:37:44.115Z,67.69
2017-10-22T12:38:54.636Z,67.59
2017-10-22T12:40:05.222Z,68.32
2017-10-22T12:41:15.996Z,68.51
2017-10-22T12:42:26.586Z,68.51
2017-10-22T12:43:37.272Z,68.61
2017-10-22T12:44:47.879Z,68.51
2017-10-22T12:45:58.351Z,68.9
2017-10-22T12:47:09.096Z,70.04
2017-10-22T12:48:19.665Z,69.47
2017-10-22T12:49:30.278Z,69.37
2017-10-22T12:50:40.811Z,69.76
2017-10-22T12:51:51.462Z,70.14
2017-10-22T12:53:01.994Z,70.33
2017-10-22T12:54:13.504Z,69.95
2017-10-22T12:55:24.026Z,69.76
2017-10-22T12:56:34.788Z,70.14
2017-10-22T12:57:45.393Z,70.71
2017-10-22T12:58:55.983Z,70.71
2017-10-22T13:00:06.757Z,70.81
2017-10-22T13:01:17.423Z,71.38
2017-10-22T13:02:27.641Z,71.38
2017-10-22T13:03:38.154Z,70.81
2017-10-22T13:04:48.746Z,71.19
2017-10-22T13:05:59.280Z,71.76
2017-10-22T13:07:09.809Z,71.95
2017-10-22T13:08:20.586Z,71.95
2017-10-22T13:09:30.806Z,71.57
2017-10-22T13:10:41.345Z,72.14
2017-10-22T13:11:51.878Z,71.57
2017-10-22T13:13:02.452Z,71.95
2017-10-22T13:14:13.047Z,71.95
2017-10-22T13:15:23.564Z,71.95
2017-10-22T13:16:34.085Z,71.95
2017-10-22T13:17:44.646Z,72.05
2017-10-22T13:18:55.210Z,72.33
2017-10-22T13:20:06.020Z,72.43
2017-10-22T13:21:16.564Z,72.62
2017-10-22T13:22:27.075Z,72.53
2017-10-22T13:23:37.668Z,74.15
2017-10-22T13:24:48.210Z,73.67
2017-10-22T13:25:58.795Z,73.67
2017-10-22T13:27:09.363Z,73.96
2017-10-22T13:28:19.634Z,73.86
2017-10-22T13:29:30.162Z,73.67
2017-10-22T13:30:40.714Z,73.86
2017-10-22T13:31:51.343Z,73.86
2017-10-22T13:33:01.820Z,73.92
2017-10-22T13:34:12.385Z,74.59
2017-10-22T13:35:22.571Z,74.21
2017-10-22T13:36:33.042Z,74.69
2017-10-22T13:37:43.552Z,74.91
2017-10-22T13:38:54.165Z,74.69
2017-10-22T13:40:04.665Z,74.69
2017-10-22T13:41:15.285Z,74.91
2017-10-22T13:42:25.810Z,74.91
2017-10-22T13:43:36.305Z,74.91
2017-10-22T13:44:47.087Z,74.78
2017-10-22T13:45:57.680Z,74.82
2017-10-22T13:47:08.439Z,74.73
2017-10-22T13:48:18.948Z,74.44
2017-10-22T13:49:29.695Z,74.59
2017-10-22T13:50:40.555Z,74.78
2017-10-22T13:51:51.059Z,74.78
2017-10-22T13:53:01.612Z,74.69
2017-10-22T13:54:12.068Z,74.88
2017-10-22T13:55:22.567Z,75.07
2017-10-22T13:56:33.074Z,75.54
2017-10-22T13:57:43.678Z,75.45
2017-10-22T13:58:54.196Z,76.6
2017-10-22T14:00:04.772Z,76.69
2017-10-22T14:01:15.435Z,76.21
2017-10-22T14:02:25.963Z,76.03
2017-10-22T14:03:36.546Z,76.31
2017-10-22T14:04:47.474Z,76.12
2017-10-22T14:05:58.075Z,76.31
2017-10-22T14:07:08.635Z,76.12
2017-10-22T14:08:18.826Z,76.88
2017-10-22T14:09:29.379Z,76.4
2017-10-22T14:10:39.990Z,76.69
2017-10-22T14:11:50.567Z,76.4
2017-10-22T14:13:00.784Z,76.79
2017-10-22T14:14:11.312Z,76.98
2017-10-22T14:15:21.904Z,77.08
2017-10-22T14:16:32.467Z,77.36
2017-10-22T14:17:42.990Z,78.03
2017-10-22T14:18:53.655Z,77.94
2017-10-22T14:20:04.383Z,78.31
2017-10-22T14:21:14.952Z,77.84
2017-10-22T14:22:25.491Z,77.94
2017-10-22T14:23:36.046Z,78.22
2017-10-22T14:24:46.536Z,78.51
2017-10-22T14:25:57.082Z,78.51
2017-10-22T14:27:07.622Z,78.51
2017-10-22T14:28:18.161Z,78.22
2017-10-22T14:29:28.671Z,77.84
2017-10-22T14:30:39.262Z,77.94
2017-10-22T14:31:49.809Z,78.03
2017-10-22T14:33:00.465Z,77.94
2017-10-22T14:34:10.983Z,78.31
2017-10-22T14:35:21.467Z,78.6
2017-10-22T14:36:32.060Z,78.41
2017-10-22T14:37:42.946Z,78.51
2017-10-22T14:38:53.350Z,78.31
2017-10-22T14:40:03.865Z,78.41
2017-10-22T14:41:14.513Z,78.41
2017-10-22T14:42:25.023Z,78.89
2017-10-22T14:43:35.525Z,79.36
2017-10-22T14:44:46.016Z,78.99
2017-10-22T14:45:56.505Z,79.17
2017-10-22T14:47:06.754Z,79.27
2017-10-22T14:48:17.399Z,79.08
2017-10-22T14:49:28.033Z,79.33
2017-10-22T14:50:38.574Z,79.85
2017-10-22T14:51:49.059Z,79.33
2017-10-22T14:52:59.441Z,79.52
2017-10-22T14:54:10.079Z,79.8
2017-10-22T14:55:20.685Z,79.9
2017-10-22T14:56:31.274Z,80.38
2017-10-22T14:57:41.817Z,80.95
2017-10-22T14:58:52.303Z,81.04
2017-10-22T15:00:03.039Z,80.57
2017-10-22T15:01:13.063Z,80.47
2017-10-22T15:02:23.602Z,80.95
2017-10-22T15:03:34.230Z,80.66
2017-10-22T15:04:44.833Z,80.76
2017-10-22T15:05:55.448Z,80.95
2017-10-22T15:07:05.984Z,81.04
2017-10-22T15:08:16.749Z,80.85
2017-10-22T15:09:27.287Z,80.57
2017-10-22T15:10:37.860Z,80.85
2017-10-22T15:11:48.684Z,80.76
2017-10-22T15:12:59.259Z,81.24
2017-10-22T15:14:10.090Z,80.66